Time;durP1;ratioP1;P1;durP2;ratioP2;P2;SDS_P1;SDS_P2;PMS_P1;PMS_P2;Temp;Humidity;BMP_temperature;BMP_pressure;BME280_temperature;BME280_humidity;BME280_pressure;Samples;Min_cycle;Max_cycle;Signal;HPM_P1;HPM_P2
2023/02/20 00:02:19;;;;;;;16.43;9.40;;;;;;;;;;4970773;28;20670;-76
2023/02/20 00:04:45;;;;;;;18.33;8.97;;;;;;;;;;4974253;28;20179;-76
2023/02/20 00:07:10;;;;;;;14.57;8.33;;;;;;;;;;4977582;28;20196;-76
2023/02/20 00:09:36;;;;;;;16.97;9.57;;;;;;;;;;4973110;28;20216;-76
2023/02/20 00:12:01;;;;;;;21.90;10.00;;;;;;;;;;4966000;28;20222;-76
2023/02/20 00:14:26;;;;;;;13.53;8.77;;;;;;;;;;4968585;28;20187;-76
2023/02/20 00:16:51;;;;;;;15.37;9.87;;;;;;;;;;4971393;28;20212;-76
2023/02/20 00:19:16;;;;;;;17.83;9.43;;;;;;;;;;4970128;28;20188;-75
2023/02/20 00:21:46;;;;;;;17.83;9.20;;;;;;;;;;4960523;28;20196;-75
2023/02/20 00:24:11;;;;;;;16.73;9.43;;;;;;;;;;4964594;28;20177;-76
2023/02/20 00:26:36;;;;;;;16.27;9.27;;;;;;;;;;4963453;28;20183;-75
2023/02/20 00:29:01;;;;;;;18.83;9.67;;;;;;;;;;4961899;28;20199;-76
2023/02/20 00:31:27;;;;;;;15.50;9.27;;;;;;;;;;4972864;28;20196;-76
2023/02/20 00:33:52;;;;;;;15.50;9.40;;;;;;;;;;4978265;28;20179;-76
2023/02/20 00:36:17;;;;;;;20.33;9.33;;;;;;;;;;4978161;28;20180;-76
2023/02/20 00:38:43;;;;;;;17.20;9.87;;;;;;;;;;4969989;28;20568;-76
2023/02/20 00:41:10;;;;;;;14.97;9.33;;;;;;;;;;4967967;28;20264;-75
2023/02/20 00:43:37;;;;;;;16.17;9.30;;;;;;;;;;4978385;28;20204;-76
2023/02/20 00:46:03;;;;;;;20.83;10.50;;;;;;;;;;4973723;28;20188;-75
2023/02/20 00:48:28;;;;;;;15.20;9.17;;;;;;;;;;4980168;28;20366;-76
2023/02/20 00:50:53;;;;;;;14.77;8.47;;;;;;;;;;4972088;28;20213;-76
2023/02/20 00:53:18;;;;;;;19.00;9.93;;;;;;;;;;4971607;28;20566;-76
2023/02/20 00:55:43;;;;;;;14.20;8.83;;;;;;;;;;4967254;28;20180;-76
2023/02/20 00:58:09;;;;;;;15.67;9.20;;;;;;;;;;4962002;28;20180;-75
2023/02/20 01:00:34;;;;;;;16.10;9.67;;;;;;;;;;4962607;28;20752;-75
2023/02/20 01:02:59;;;;;;;13.97;9.00;;;;;;;;;;4970203;28;20181;-76
2023/02/20 01:05:25;;;;;;;15.20;9.20;;;;;;;;;;4975018;28;20232;-76
2023/02/20 01:07:50;;;;;;;14.10;9.90;;;;;;;;;;4970682;28;20189;-75
2023/02/20 01:10:15;;;;;;;16.63;9.60;;;;;;;;;;4973463;28;20698;-76
2023/02/20 01:12:41;;;;;;;15.73;9.47;;;;;;;;;;4970161;28;20398;-76
2023/02/20 01:15:06;;;;;;;19.10;9.50;;;;;;;;;;4968362;28;20263;-76
2023/02/20 01:17:32;;;;;;;15.77;10.03;;;;;;;;;;4964590;28;20677;-76
2023/02/20 01:19:57;;;;;;;16.40;9.53;;;;;;;;;;4977414;28;20685;-76
2023/02/20 01:22:22;;;;;;;15.97;9.63;;;;;;;;;;4977171;28;20196;-76
2023/02/20 01:24:48;;;;;;;18.77;11.33;;;;;;;;;;4974951;28;20188;-76
2023/02/20 01:27:13;;;;;;;17.30;11.63;;;;;;;;;;4992275;28;20268;-76
2023/02/20 01:29:38;;;;;;;17.70;10.63;;;;;;;;;;4972961;28;20219;-76
2023/02/20 01:32:03;;;;;;;21.17;10.70;;;;;;;;;;4975952;28;20199;-76
2023/02/20 01:34:28;;;;;;;19.13;11.83;;;;;;;;;;4975268;28;20177;-76
2023/02/20 01:36:54;;;;;;;16.80;11.17;;;;;;;;;;4979117;28;20487;-76
2023/02/20 01:39:21;;;;;;;25.73;12.83;;;;;;;;;;4973291;28;20177;-76
2023/02/20 01:41:47;;;;;;;18.70;11.47;;;;;;;;;;4974458;28;20690;-76
2023/02/20 01:44:16;;;;;;;26.97;12.50;;;;;;;;;;4971905;28;20180;-76
2023/02/20 01:46:43;;;;;;;20.67;13.33;;;;;;;;;;4972185;28;20263;-76
2023/02/20 01:49:13;;;;;;;18.63;12.37;;;;;;;;;;4975941;28;20207;-76
2023/02/20 01:51:41;;;;;;;26.90;13.97;;;;;;;;;;4973324;28;20215;-76
2023/02/20 01:54:08;;;;;;;31.63;14.93;;;;;;;;;;4972165;28;20181;-75
2023/02/20 01:56:33;;;;;;;22.20;13.87;;;;;;;;;;4964849;28;20185;-76
2023/02/20 01:58:58;;;;;;;28.00;15.47;;;;;;;;;;4963263;28;20199;-76
2023/02/20 02:01:24;;;;;;;31.60;16.97;;;;;;;;;;4979795;28;20235;-76
2023/02/20 02:03:52;;;;;;;26.63;16.47;;;;;;;;;;4971746;28;20649;-76
2023/02/20 02:06:17;;;;;;;33.10;17.13;;;;;;;;;;4970763;28;20199;-76
2023/02/20 02:08:42;;;;;;;34.10;18.33;;;;;;;;;;4963956;28;20201;-75
2023/02/20 02:11:09;;;;;;;37.00;17.53;;;;;;;;;;4974803;28;20250;-76
2023/02/20 02:13:36;;;;;;;42.63;17.93;;;;;;;;;;4971906;28;20688;-76
2023/02/20 02:16:07;;;;;;;33.33;17.87;;;;;;;;;;4974632;28;20192;-76
2023/02/20 02:18:35;;;;;;;39.97;21.97;;;;;;;;;;4968643;28;20190;-75
2023/02/20 02:21:35;;;;;;;34.40;19.17;;;;;;;;;;4973203;28;20618;-75
2023/02/20 02:24:03;;;;;;;36.73;18.27;;;;;;;;;;4965075;28;20197;-76
2023/02/20 02:26:42;;;;;;;42.43;19.83;;;;;;;;;;4968366;28;20192;-76
2023/02/20 02:29:13;;;;;;;33.20;21.13;;;;;;;;;;4973866;28;20355;-75
2023/02/20 02:31:57;;;;;;;36.30;20.83;;;;;;;;;;4978834;28;20296;-76
2023/02/20 02:34:41;;;;;;;36.90;20.70;;;;;;;;;;4975071;28;20658;-76
2023/02/20 02:37:09;;;;;;;37.33;20.17;;;;;;;;;;4970722;28;20611;-75
2023/02/20 02:39:34;;;;;;;42.17;19.97;;;;;;;;;;4973758;28;20192;-75
2023/02/20 02:42:05;;;;;;;39.47;19.93;;;;;;;;;;4979976;28;20434;-75
2023/02/20 02:44:38;;;;;;;37.10;22.27;;;;;;;;;;4973239;28;20187;-76
2023/02/20 02:47:10;;;;;;;42.47;21.27;;;;;;;;;;4971425;28;20284;-76
2023/02/20 02:49:52;;;;;;;38.47;21.37;;;;;;;;;;4973131;28;20663;-75
2023/02/20 02:52:37;;;;;;;37.07;20.30;;;;;;;;;;4968833;28;20631;-75
2023/02/20 02:55:02;;;;;;;40.27;20.77;;;;;;;;;;4962391;28;20195;-76
2023/02/20 02:57:28;;;;;;;33.80;21.17;;;;;;;;;;4965224;28;20650;-76
2023/02/20 03:00:01;;;;;;;38.47;19.80;;;;;;;;;;4975346;28;20188;-76
2023/02/20 03:02:36;;;;;;;42.63;20.93;;;;;;;;;;4969750;28;20270;-75
2023/02/20 03:05:03;;;;;;;35.10;19.47;;;;;;;;;;4973430;28;20195;-76
2023/02/20 03:07:29;;;;;;;37.10;20.60;;;;;;;;;;4973078;28;20292;-75
2023/02/20 03:09:58;;;;;;;44.43;18.97;;;;;;;;;;4970284;28;20290;-75
2023/02/20 03:12:24;;;;;;;32.57;20.03;;;;;;;;;;4979690;28;20216;-76
2023/02/20 03:17:42;;;;;;;34.63;18.10;;;;;;;;;;4957275;28;20192;-75
2023/02/20 03:20:09;;;;;;;35.47;17.87;;;;;;;;;;4958689;28;20529;-75
2023/02/20 03:22:43;;;;;;;36.97;18.33;;;;;;;;;;4961623;28;20180;-75
2023/02/20 03:25:14;;;;;;;37.03;20.43;;;;;;;;;;4963049;28;20173;-75
2023/02/20 03:27:45;;;;;;;42.20;20.50;;;;;;;;;;4961181;28;20185;-75
2023/02/20 03:30:14;;;;;;;43.90;19.70;;;;;;;;;;4961562;28;20209;-76
2023/02/20 03:43:38;;;;;;;41.13;20.73;;;;;;;;;;4967859;28;20817;-75
2023/02/20 03:46:12;;;;;;;44.87;22.77;;;;;;;;;;4968636;28;20235;-75
2023/02/20 03:48:42;;;;;;;39.20;19.87;;;;;;;;;;4968946;28;20207;-76
2023/02/20 03:51:11;;;;;;;41.37;19.20;;;;;;;;;;4975741;28;20200;-75
2023/02/20 03:53:36;;;;;;;34.03;19.10;;;;;;;;;;4967337;28;20177;-76
2023/02/20 03:56:04;;;;;;;39.13;19.60;;;;;;;;;;4972710;28;20229;-76
2023/02/20 03:58:31;;;;;;;40.20;19.17;;;;;;;;;;4958568;28;20263;-76
2023/02/20 04:00:57;;;;;;;41.37;19.60;;;;;;;;;;4975969;28;20226;-76
2023/02/20 04:03:25;;;;;;;38.00;19.17;;;;;;;;;;4971401;28;20179;-75
2023/02/20 04:05:52;;;;;;;39.60;20.10;;;;;;;;;;4970706;28;20193;-75
2023/02/20 04:08:23;;;;;;;40.17;19.40;;;;;;;;;;4976605;28;20274;-76
2023/02/20 04:13:24;;;;;;;39.87;19.80;;;;;;;;;;4964839;28;20660;-74
2023/02/20 04:15:50;;;;;;;41.10;18.63;;;;;;;;;;4970919;28;20183;-71
2023/02/20 04:18:19;;;;;;;37.20;20.40;;;;;;;;;;4976730;28;20291;-71
2023/02/20 04:20:47;;;;;;;40.53;19.93;;;;;;;;;;4972841;28;20180;-72
2023/02/20 04:23:13;;;;;;;43.37;20.50;;;;;;;;;;4952280;28;20197;-73
2023/02/20 04:25:42;;;;;;;45.87;20.73;;;;;;;;;;4952546;29;20203;-72
2023/02/20 04:28:07;;;;;;;46.93;19.83;;;;;;;;;;4954389;28;20185;-72
2023/02/20 04:30:32;;;;;;;40.30;20.20;;;;;;;;;;4952427;29;20181;-72
2023/02/20 04:32:57;;;;;;;37.30;21.00;;;;;;;;;;4954883;28;20221;-72
2023/02/20 04:35:23;;;;;;;38.43;21.20;;;;;;;;;;4955671;28;20262;-72
2023/02/20 04:37:48;;;;;;;35.13;20.00;;;;;;;;;;4954081;28;20194;-72
2023/02/20 04:40:14;;;;;;;38.00;19.47;;;;;;;;;;4950667;28;20180;-72
2023/02/20 04:42:39;;;;;;;45.03;20.63;;;;;;;;;;4946029;28;20731;-72
2023/02/20 04:45:05;;;;;;;38.90;19.53;;;;;;;;;;4946520;28;20185;-72
2023/02/20 04:47:30;;;;;;;33.97;18.27;;;;;;;;;;4946499;28;20200;-72
2023/02/20 04:49:55;;;;;;;35.40;18.20;;;;;;;;;;4963436;28;20208;-73
2023/02/20 04:52:20;;;;;;;42.03;19.80;;;;;;;;;;4952661;28;20196;-72
2023/02/20 04:54:46;;;;;;;35.87;17.87;;;;;;;;;;4951217;29;20229;-73
2023/02/20 04:57:11;;;;;;;40.83;18.93;;;;;;;;;;4954312;28;20181;-72
2023/02/20 04:59:36;;;;;;;35.17;18.80;;;;;;;;;;4952424;29;20259;-72
2023/02/20 05:02:02;;;;;;;30.10;16.57;;;;;;;;;;4950543;28;20702;-72
2023/02/20 05:04:27;;;;;;;35.60;17.57;;;;;;;;;;4956535;28;20200;-72
2023/02/20 05:06:53;;;;;;;34.97;18.83;;;;;;;;;;4950614;28;20186;-72
2023/02/20 05:09:19;;;;;;;34.13;16.27;;;;;;;;;;4951254;28;20294;-72
2023/02/20 05:11:44;;;;;;;32.37;16.03;;;;;;;;;;4956543;28;20838;-72
2023/02/20 05:14:10;;;;;;;32.93;14.93;;;;;;;;;;4948554;28;20177;-72
2023/02/20 05:16:36;;;;;;;23.83;13.40;;;;;;;;;;4952784;28;20185;-73
2023/02/20 05:19:01;;;;;;;28.90;14.97;;;;;;;;;;4955909;28;20220;-74
2023/02/20 05:24:11;;;;;;;28.87;13.67;;;;;;;;;;4952454;28;20200;-73
2023/02/20 05:26:36;;;;;;;27.90;12.87;;;;;;;;;;4960091;28;20197;-74
2023/02/20 05:29:01;;;;;;;24.63;12.90;;;;;;;;;;4955492;29;20232;-75
2023/02/20 05:31:27;;;;;;;28.23;12.07;;;;;;;;;;4960866;28;20717;-74
2023/02/20 05:33:52;;;;;;;24.17;11.27;;;;;;;;;;4959438;28;20572;-74
2023/02/20 05:36:17;;;;;;;27.77;12.23;;;;;;;;;;4958396;28;20693;-74
2023/02/20 05:38:46;;;;;;;27.17;11.67;;;;;;;;;;4950764;28;20189;-74
2023/02/20 05:41:13;;;;;;;21.90;11.30;;;;;;;;;;4952949;28;20555;-74
2023/02/20 05:43:38;;;;;;;29.27;11.17;;;;;;;;;;4963724;28;20292;-74
2023/02/20 05:46:03;;;;;;;21.03;10.33;;;;;;;;;;4953748;28;20189;-71
2023/02/20 05:48:28;;;;;;;18.83;9.23;;;;;;;;;;4948459;29;20201;-74
2023/02/20 05:50:54;;;;;;;18.90;9.50;;;;;;;;;;4956188;28;20196;-72
2023/02/20 05:53:19;;;;;;;19.90;9.97;;;;;;;;;;4954673;29;20241;-73
2023/02/20 05:55:44;;;;;;;24.63;9.13;;;;;;;;;;4954505;29;20169;-73
2023/02/20 05:58:09;;;;;;;27.33;8.93;;;;;;;;;;4945962;28;20240;-72
2023/02/20 06:00:35;;;;;;;18.20;9.80;;;;;;;;;;4954799;29;20184;-73
2023/02/20 06:03:00;;;;;;;24.50;10.70;;;;;;;;;;4955168;28;20192;-72
2023/02/20 06:05:27;;;;;;;26.07;9.73;;;;;;;;;;4955177;28;20618;-72
2023/02/20 06:07:52;;;;;;;21.10;9.63;;;;;;;;;;4947057;28;20187;-72
2023/02/20 06:10:18;;;;;;;20.87;9.13;;;;;;;;;;4947379;29;20209;-72
2023/02/20 06:12:43;;;;;;;25.03;12.03;;;;;;;;;;4944997;28;20620;-72
2023/02/20 06:15:08;;;;;;;24.67;9.87;;;;;;;;;;4946960;28;20647;-73
2023/02/20 06:17:33;;;;;;;21.57;10.00;;;;;;;;;;4955116;28;20189;-72
2023/02/20 06:19:58;;;;;;;21.83;9.07;;;;;;;;;;4962199;28;20191;-73
2023/02/20 06:22:24;;;;;;;24.20;9.57;;;;;;;;;;4966771;28;20208;-72
2023/02/20 06:24:49;;;;;;;22.10;8.90;;;;;;;;;;4958825;28;20272;-74
2023/02/20 06:27:15;;;;;;;20.37;8.73;;;;;;;;;;4951576;28;20260;-73
2023/02/20 06:29:40;;;;;;;26.83;9.20;;;;;;;;;;4965333;28;20633;-73
2023/02/20 06:32:05;;;;;;;14.07;7.77;;;;;;;;;;4958611;28;20197;-73
2023/02/20 06:34:32;;;;;;;22.70;9.40;;;;;;;;;;4958659;28;20215;-72
2023/02/20 06:36:58;;;;;;;23.63;8.07;;;;;;;;;;4958109;28;20263;-72
2023/02/20 06:39:23;;;;;;;27.83;8.47;;;;;;;;;;4952993;28;20203;-73
2023/02/20 06:41:48;;;;;;;14.50;7.50;;;;;;;;;;4954763;28;20292;-72
2023/02/20 06:44:13;;;;;;;19.77;8.13;;;;;;;;;;4956068;28;20255;-74
2023/02/20 06:46:39;;;;;;;18.73;6.83;;;;;;;;;;4953771;29;20553;-72
2023/02/20 06:49:04;;;;;;;16.03;8.20;;;;;;;;;;4954880;28;20203;-73
2023/02/20 06:51:30;;;;;;;19.83;7.50;;;;;;;;;;4954363;28;20197;-72
2023/02/20 06:53:56;;;;;;;18.90;7.00;;;;;;;;;;4945822;28;20185;-72
2023/02/20 06:56:24;;;;;;;13.33;6.90;;;;;;;;;;4938078;28;20182;-72
2023/02/20 06:58:50;;;;;;;24.07;8.57;;;;;;;;;;4934098;29;20178;-72
2023/02/20 07:01:16;;;;;;;17.03;6.60;;;;;;;;;;4937965;28;20204;-72
2023/02/20 07:03:42;;;;;;;12.43;6.97;;;;;;;;;;4955161;28;20556;-72
2023/02/20 07:06:07;;;;;;;18.27;7.53;;;;;;;;;;4952886;28;20275;-72
2023/02/20 07:08:32;;;;;;;19.23;7.30;;;;;;;;;;4956067;28;20196;-72
2023/02/20 07:10:58;;;;;;;17.87;8.13;;;;;;;;;;4947611;28;20184;-73
2023/02/20 07:13:23;;;;;;;21.60;7.50;;;;;;;;;;4958318;28;20647;-72
2023/02/20 07:15:48;;;;;;;17.77;7.30;;;;;;;;;;4945097;28;20284;-72
2023/02/20 07:18:15;;;;;;;20.97;8.73;;;;;;;;;;4954282;28;20184;-72
2023/02/20 07:20:41;;;;;;;17.97;8.23;;;;;;;;;;4956831;28;20650;-72
2023/02/20 07:23:06;;;;;;;22.27;9.70;;;;;;;;;;4958639;28;20224;-72
2023/02/20 07:25:31;;;;;;;22.10;7.43;;;;;;;;;;4953642;28;20557;-72
2023/02/20 07:27:56;;;;;;;25.80;7.93;;;;;;;;;;4955461;28;20200;-72
2023/02/20 07:30:23;;;;;;;19.83;7.77;;;;;;;;;;4953907;28;20204;-72
2023/02/20 07:32:49;;;;;;;21.00;7.47;;;;;;;;;;4955982;28;20288;-73
2023/02/20 07:35:14;;;;;;;17.90;7.43;;;;;;;;;;4944729;28;20301;-72
2023/02/20 07:37:39;;;;;;;22.03;7.63;;;;;;;;;;4950523;29;20188;-72
2023/02/20 07:40:04;;;;;;;19.90;8.37;;;;;;;;;;4934811;29;20186;-72
2023/02/20 07:42:31;;;;;;;14.57;6.70;;;;;;;;;;4946257;28;20200;-72
2023/02/20 07:44:56;;;;;;;13.87;7.37;;;;;;;;;;4958384;28;20189;-72
2023/02/20 07:47:21;;;;;;;16.13;6.70;;;;;;;;;;4955366;28;20571;-73
2023/02/20 07:49:47;;;;;;;15.73;6.83;;;;;;;;;;4952953;28;20575;-73
2023/02/20 07:52:12;;;;;;;17.07;6.60;;;;;;;;;;4952723;28;20208;-73
2023/02/20 07:54:37;;;;;;;18.83;6.33;;;;;;;;;;4953916;28;20177;-72
2023/02/20 07:57:02;;;;;;;15.17;6.17;;;;;;;;;;4953616;29;20187;-73
2023/02/20 07:59:28;;;;;;;17.17;6.53;;;;;;;;;;4953583;29;20631;-73
2023/02/20 08:01:53;;;;;;;21.37;6.70;;;;;;;;;;4953885;28;20196;-72
2023/02/20 08:04:18;;;;;;;15.53;6.20;;;;;;;;;;4952700;28;20193;-73
2023/02/20 08:06:43;;;;;;;17.33;7.33;;;;;;;;;;4953809;29;20168;-72
2023/02/20 08:09:09;;;;;;;15.73;8.10;;;;;;;;;;4953794;29;20208;-73
2023/02/20 08:11:35;;;;;;;22.33;7.37;;;;;;;;;;4953346;28;20211;-72
2023/02/20 08:14:00;;;;;;;18.33;7.30;;;;;;;;;;4953922;29;20253;-72
2023/02/20 08:16:26;;;;;;;16.50;7.43;;;;;;;;;;4947955;28;20260;-73
2023/02/20 08:18:51;;;;;;;15.30;6.90;;;;;;;;;;4934823;29;20176;-74
2023/02/20 08:21:16;;;;;;;18.20;6.97;;;;;;;;;;4942700;29;20201;-72
2023/02/20 08:23:41;;;;;;;18.47;7.83;;;;;;;;;;4958014;28;20177;-73
2023/02/20 08:26:07;;;;;;;21.33;8.53;;;;;;;;;;4956722;29;20184;-72
2023/02/20 08:28:32;;;;;;;16.93;6.50;;;;;;;;;;4958060;29;20579;-73
2023/02/20 08:30:57;;;;;;;13.67;8.20;;;;;;;;;;4957913;28;20176;-73
2023/02/20 08:33:22;;;;;;;26.63;9.07;;;;;;;;;;4957600;29;20181;-73
2023/02/20 08:35:50;;;;;;;13.30;7.20;;;;;;;;;;4957212;28;20181;-74
2023/02/20 08:38:24;;;;;;;16.47;7.73;;;;;;;;;;4956656;29;20185;-73
2023/02/20 08:40:49;;;;;;;19.00;8.43;;;;;;;;;;4937879;29;20165;-73
2023/02/20 08:43:14;;;;;;;24.70;7.97;;;;;;;;;;4952731;29;20179;-73
2023/02/20 08:45:39;;;;;;;19.93;8.17;;;;;;;;;;4956191;28;20204;-73
2023/02/20 08:48:05;;;;;;;32.60;9.63;;;;;;;;;;4955956;29;20564;-73
2023/02/20 08:50:30;;;;;;;18.80;9.03;;;;;;;;;;4957154;29;20180;-73
2023/02/20 08:52:55;;;;;;;13.83;7.27;;;;;;;;;;4957034;28;20236;-73
2023/02/20 08:55:20;;;;;;;17.67;7.97;;;;;;;;;;4956989;29;20193;-73
2023/02/20 08:57:46;;;;;;;22.67;9.20;;;;;;;;;;4957048;29;20613;-73
2023/02/20 09:00:13;;;;;;;18.33;8.60;;;;;;;;;;4955970;29;20177;-74
2023/02/20 09:02:38;;;;;;;17.93;8.20;;;;;;;;;;4956557;28;20239;-73
2023/02/20 09:05:03;;;;;;;24.80;9.67;;;;;;;;;;4956563;29;20244;-73
2023/02/20 09:07:29;;;;;;;13.93;8.07;;;;;;;;;;4956672;29;20188;-73
2023/02/20 09:09:54;;;;;;;21.63;10.17;;;;;;;;;;4956178;29;20652;-74
2023/02/20 09:12:19;;;;;;;25.57;10.20;;;;;;;;;;4956132;28;20728;-73
2023/02/20 09:14:45;;;;;;;19.07;9.27;;;;;;;;;;4956546;29;20173;-73
2023/02/20 09:17:10;;;;;;;18.30;9.57;;;;;;;;;;4952635;28;20644;-73
2023/02/20 09:19:35;;;;;;;19.17;8.47;;;;;;;;;;4955980;28;20272;-73
2023/02/20 09:22:00;;;;;;;17.37;10.17;;;;;;;;;;4955247;28;20340;-73
2023/02/20 09:24:32;;;;;;;29.27;9.00;;;;;;;;;;4956312;28;20185;-73
2023/02/20 09:26:58;;;;;;;18.50;8.87;;;;;;;;;;4954889;28;20181;-73
2023/02/20 09:29:23;;;;;;;20.03;9.83;;;;;;;;;;4948550;28;20205;-74
2023/02/20 09:31:48;;;;;;;23.93;10.17;;;;;;;;;;4954651;28;20201;-73
2023/02/20 09:34:14;;;;;;;24.43;11.17;;;;;;;;;;4954775;28;20188;-73
2023/02/20 09:36:39;;;;;;;17.43;9.03;;;;;;;;;;4953839;28;20307;-73
2023/02/20 09:39:04;;;;;;;19.53;9.57;;;;;;;;;;4954316;29;20181;-72
2023/02/20 09:41:45;;;;;;;21.70;10.70;;;;;;;;;;4954336;28;20201;-73
2023/02/20 09:44:19;;;;;;;16.27;9.50;;;;;;;;;;4951416;29;20185;-73
2023/02/20 09:46:45;;;;;;;15.80;8.27;;;;;;;;;;4949870;28;20207;-73
2023/02/20 09:49:10;;;;;;;24.23;9.90;;;;;;;;;;4955738;29;20200;-73
2023/02/20 09:51:38;;;;;;;19.10;9.10;;;;;;;;;;4953945;28;20256;-74
2023/02/20 09:54:06;;;;;;;17.03;8.60;;;;;;;;;;4954738;29;20264;-73
2023/02/20 09:56:38;;;;;;;14.53;9.13;;;;;;;;;;4955886;29;20166;-73
2023/02/20 09:59:12;;;;;;;19.73;8.13;;;;;;;;;;4955558;29;20220;-73
2023/02/20 10:01:40;;;;;;;16.13;7.83;;;;;;;;;;4950640;29;20279;-73
2023/02/20 10:04:13;;;;;;;19.13;9.00;;;;;;;;;;4937106;29;20174;-73
2023/02/20 10:06:39;;;;;;;19.90;8.80;;;;;;;;;;4955320;28;20181;-73
2023/02/20 10:09:08;;;;;;;14.53;9.07;;;;;;;;;;4955405;29;20197;-73
2023/02/20 10:14:08;;;;;;;21.70;8.80;;;;;;;;;;4943107;29;20281;-79
2023/02/20 10:16:46;;;;;;;22.77;8.50;;;;;;;;;;4937210;29;20178;-79
2023/02/20 10:19:28;;;;;;;18.27;9.70;;;;;;;;;;4937927;29;20232;-80
2023/02/20 10:22:12;;;;;;;17.97;8.03;;;;;;;;;;4935471;29;20216;-80
2023/02/20 10:24:53;;;;;;;21.40;9.23;;;;;;;;;;4937600;29;20281;-80
2023/02/20 10:27:18;;;;;;;14.27;8.30;;;;;;;;;;4952448;28;20174;-77
2023/02/20 10:29:44;;;;;;;17.13;8.03;;;;;;;;;;4933948;29;20260;-80
2023/02/20 10:32:12;;;;;;;17.10;7.77;;;;;;;;;;4935830;29;20189;-79
2023/02/20 10:34:52;;;;;;;16.83;8.13;;;;;;;;;;4939045;29;20189;-80
2023/02/20 10:37:18;;;;;;;18.13;8.50;;;;;;;;;;4921689;29;20165;-80
2023/02/20 10:40:07;;;;;;;13.67;7.93;;;;;;;;;;4936015;29;20548;-79
2023/02/20 10:42:37;;;;;;;15.77;10.20;;;;;;;;;;4951820;29;20213;-79
2023/02/20 10:45:02;;;;;;;15.27;8.90;;;;;;;;;;4937042;29;20177;-80
2023/02/20 10:47:27;;;;;;;15.63;8.57;;;;;;;;;;4937108;29;20178;-80
2023/02/20 10:49:56;;;;;;;14.90;8.27;;;;;;;;;;4920651;29;20211;-82
2023/02/20 10:52:24;;;;;;;12.17;7.73;;;;;;;;;;4922495;29;20245;-80
2023/02/20 10:54:52;;;;;;;15.10;8.80;;;;;;;;;;4944519;29;20225;-79
2023/02/20 10:57:22;;;;;;;12.90;8.60;;;;;;;;;;4921075;29;20179;-80
2023/02/20 10:59:50;;;;;;;14.17;7.23;;;;;;;;;;4934033;29;20189;-80
2023/02/20 11:02:17;;;;;;;15.17;7.90;;;;;;;;;;4928005;29;20313;-80
2023/02/20 11:04:46;;;;;;;17.27;8.20;;;;;;;;;;4927651;29;20241;-80
2023/02/20 11:07:17;;;;;;;14.63;8.83;;;;;;;;;;4935909;29;20179;-81
2023/02/20 11:09:42;;;;;;;14.80;8.17;;;;;;;;;;4935079;29;20241;-80
2023/02/20 11:12:17;;;;;;;13.73;8.00;;;;;;;;;;4933320;29;20244;-80
2023/02/20 11:14:48;;;;;;;17.10;7.83;;;;;;;;;;4942465;28;20640;-80
2023/02/20 11:17:20;;;;;;;16.60;8.97;;;;;;;;;;4935262;29;20660;-79
2023/02/20 11:19:46;;;;;;;16.10;7.67;;;;;;;;;;4935286;29;20670;-80
2023/02/20 11:22:11;;;;;;;11.90;7.90;;;;;;;;;;4927577;29;20302;-80
2023/02/20 11:24:40;;;;;;;12.20;8.00;;;;;;;;;;4920408;29;20201;-79
2023/02/20 11:27:08;;;;;;;15.47;8.07;;;;;;;;;;4952398;28;20182;-79
2023/02/20 11:29:36;;;;;;;13.00;8.20;;;;;;;;;;4935145;29;20684;-79
2023/02/20 11:32:16;;;;;;;14.97;6.23;;;;;;;;;;4926869;29;21362;-80
2023/02/20 11:34:41;;;;;;;11.00;6.53;;;;;;;;;;4933082;29;20178;-80
2023/02/20 11:37:11;;;;;;;10.80;6.23;;;;;;;;;;4932956;29;20663;-79
2023/02/20 11:39:36;;;;;;;9.27;6.43;;;;;;;;;;4939233;29;20204;-79
2023/02/20 11:42:04;;;;;;;11.77;6.87;;;;;;;;;;4952552;28;20198;-80
2023/02/20 11:44:30;;;;;;;12.20;6.67;;;;;;;;;;4930120;29;20178;-81
2023/02/20 11:47:09;;;;;;;10.67;5.77;;;;;;;;;;4924257;29;20683;-81
2023/02/20 11:49:34;;;;;;;14.33;5.23;;;;;;;;;;4931809;29;20228;-80
2023/02/20 11:52:06;;;;;;;10.83;5.30;;;;;;;;;;4939998;28;20201;-80
2023/02/20 11:54:31;;;;;;;8.40;5.73;;;;;;;;;;4932101;29;20265;-80
2023/02/20 11:57:00;;;;;;;10.40;5.87;;;;;;;;;;4931676;29;20205;-80
2023/02/20 11:59:27;;;;;;;11.13;6.97;;;;;;;;;;4932928;29;20177;-80
2023/02/20 12:01:53;;;;;;;7.67;5.03;;;;;;;;;;4933755;29;20197;-81
2023/02/20 12:04:21;;;;;;;10.77;6.20;;;;;;;;;;4947830;29;20182;-80
2023/02/20 12:06:46;;;;;;;10.37;5.60;;;;;;;;;;4933192;29;20174;-80
2023/02/20 12:09:16;;;;;;;8.00;4.47;;;;;;;;;;4949486;28;20252;-79
2023/02/20 12:11:42;;;;;;;12.70;5.50;;;;;;;;;;4933683;29;20575;-80
2023/02/20 12:14:12;;;;;;;8.17;4.77;;;;;;;;;;4933523;29;20182;-80
2023/02/20 12:16:54;;;;;;;6.63;4.00;;;;;;;;;;4933632;29;20170;-80
2023/02/20 12:19:28;;;;;;;11.83;5.07;;;;;;;;;;4932820;29;20178;-79
2023/02/20 12:22:13;;;;;;;8.23;4.47;;;;;;;;;;4928540;29;20226;-78
2023/02/20 12:24:57;;;;;;;12.33;4.30;;;;;;;;;;4927141;29;20209;-81
2023/02/20 12:27:41;;;;;;;8.07;4.27;;;;;;;;;;4930045;29;20268;-79
2023/02/20 12:30:06;;;;;;;9.43;4.50;;;;;;;;;;4930639;29;20219;-79
2023/02/20 12:32:49;;;;;;;7.70;4.03;;;;;;;;;;4932261;29;20201;-79
2023/02/20 12:35:26;;;;;;;9.17;4.30;;;;;;;;;;4925938;29;20616;-78
2023/02/20 12:38:11;;;;;;;7.73;4.17;;;;;;;;;;4928172;29;20235;-79
2023/02/20 12:41:12;;;;;;;8.03;4.50;;;;;;;;;;4941514;28;20185;-79
2023/02/20 12:43:44;;;;;;;10.13;5.30;;;;;;;;;;4970413;28;20201;-79
2023/02/20 12:46:39;;;;;;;12.87;5.20;;;;;;;;;;4943442;29;20281;-79
2023/02/20 12:49:07;;;;;;;10.10;5.47;;;;;;;;;;4917216;29;20236;-79
2023/02/20 12:51:46;;;;;;;12.03;5.60;;;;;;;;;;4943620;28;20174;-78
2023/02/20 12:54:22;;;;;;;10.77;5.20;;;;;;;;;;4932953;29;20317;-79
2023/02/20 12:57:10;;;;;;;14.87;5.80;;;;;;;;;;4933935;29;20169;-80
2023/02/20 12:59:59;;;;;;;13.97;5.60;;;;;;;;;;4928528;29;20194;-79
2023/02/20 13:02:45;;;;;;;13.43;5.60;;;;;;;;;;4949361;28;20576;-78
2023/02/20 13:05:12;;;;;;;12.10;5.70;;;;;;;;;;4942982;28;20217;-80
2023/02/20 13:07:46;;;;;;;10.33;6.03;;;;;;;;;;4935527;29;20174;-81
2023/02/20 13:10:13;;;;;;;12.17;6.93;;;;;;;;;;4937300;29;20284;-80
2023/02/20 13:12:39;;;;;;;17.07;8.60;;;;;;;;;;4936814;29;20293;-80
2023/02/20 13:15:16;;;;;;;15.63;7.87;;;;;;;;;;4934100;29;20321;-80
2023/02/20 13:17:46;;;;;;;10.60;5.93;;;;;;;;;;4930694;29;20185;-79
2023/02/20 13:20:15;;;;;;;9.03;5.53;;;;;;;;;;4926142;29;20563;-78
2023/02/20 13:22:41;;;;;;;12.77;6.40;;;;;;;;;;4931800;29;20206;-78
2023/02/20 13:25:24;;;;;;;16.00;8.30;;;;;;;;;;4934037;29;20180;-78
2023/02/20 13:27:58;;;;;;;11.33;6.90;;;;;;;;;;4945295;29;20184;-78
2023/02/20 13:30:25;;;;;;;10.40;6.73;;;;;;;;;;4944760;29;20202;-78
2023/02/20 13:33:09;;;;;;;16.20;7.37;;;;;;;;;;4942170;28;20217;-78
2023/02/20 13:35:41;;;;;;;15.37;6.23;;;;;;;;;;4936614;29;20212;-77
2023/02/20 13:38:08;;;;;;;11.43;6.87;;;;;;;;;;4935856;29;20178;-77
2023/02/20 13:40:35;;;;;;;14.30;7.57;;;;;;;;;;4924395;29;20201;-77
2023/02/20 13:43:27;;;;;;;12.23;7.67;;;;;;;;;;4928353;29;20202;-77
2023/02/20 13:46:13;;;;;;;11.67;7.00;;;;;;;;;;4927734;29;20536;-79
2023/02/20 13:48:41;;;;;;;11.80;5.83;;;;;;;;;;4940001;28;21488;-78
2023/02/20 13:51:15;;;;;;;10.17;5.93;;;;;;;;;;4923030;29;20273;-79
2023/02/20 13:53:48;;;;;;;7.83;5.03;;;;;;;;;;4935956;29;20268;-76
2023/02/20 13:56:16;;;;;;;13.17;7.13;;;;;;;;;;4936952;29;20528;-77
2023/02/20 13:58:43;;;;;;;11.50;6.70;;;;;;;;;;4933911;29;20178;-78
2023/02/20 14:01:08;;;;;;;9.60;5.83;;;;;;;;;;4924368;29;20205;-78
2023/02/20 14:03:33;;;;;;;9.93;6.03;;;;;;;;;;4930456;29;20684;-77
2023/02/20 14:06:09;;;;;;;6.07;4.73;;;;;;;;;;4936173;29;20192;-78
2023/02/20 14:08:35;;;;;;;10.17;5.00;;;;;;;;;;4936391;29;20173;-77
2023/02/20 14:11:08;;;;;;;11.67;5.03;;;;;;;;;;4937747;29;20643;-77
2023/02/20 14:13:34;;;;;;;11.63;4.70;;;;;;;;;;4937681;29;20206;-77
2023/02/20 14:15:59;;;;;;;8.63;4.47;;;;;;;;;;4940096;29;20686;-77
2023/02/20 14:18:34;;;;;;;8.77;4.60;;;;;;;;;;4931612;29;20182;-77
2023/02/20 14:21:09;;;;;;;11.63;4.80;;;;;;;;;;4954923;29;20244;-77
2023/02/20 14:23:35;;;;;;;13.17;5.30;;;;;;;;;;4941585;29;20197;-77
2023/02/20 14:26:04;;;;;;;12.67;5.50;;;;;;;;;;4927478;29;20203;-77
2023/02/20 14:28:31;;;;;;;14.43;6.30;;;;;;;;;;4931281;29;20900;-78
2023/02/20 14:31:04;;;;;;;12.60;6.17;;;;;;;;;;4936896;29;20556;-77
2023/02/20 14:33:30;;;;;;;12.47;6.17;;;;;;;;;;4934028;29;20189;-77
2023/02/20 14:36:11;;;;;;;13.73;6.10;;;;;;;;;;4933527;29;20182;-79
2023/02/20 14:38:48;;;;;;;9.23;5.53;;;;;;;;;;4933357;28;20190;-78
2023/02/20 14:41:19;;;;;;;9.60;5.63;;;;;;;;;;4948922;29;20554;-79
2023/02/20 14:43:52;;;;;;;11.63;5.63;;;;;;;;;;4930376;29;20564;-78
2023/02/20 14:46:22;;;;;;;12.90;5.50;;;;;;;;;;4935004;29;20578;-79
2023/02/20 14:48:47;;;;;;;9.27;4.83;;;;;;;;;;4936718;29;20193;-79
2023/02/20 14:51:23;;;;;;;10.87;5.33;;;;;;;;;;4935766;29;20170;-78
2023/02/20 14:54:09;;;;;;;8.20;4.67;;;;;;;;;;4932560;29;20256;-78
2023/02/20 14:56:34;;;;;;;13.20;5.50;;;;;;;;;;4933027;29;20177;-78